Time;durP1;ratioP1;P1;durP2;ratioP2;P2;SDS_P1;SDS_P2;PMS_P1;PMS_P2;Temp;Humidity;BMP_temperature;BMP_pressure;BME280_temperature;BME280_humidity;BME280_pressure;Samples;Min_cycle;Max_cycle;Signal;HPM_P1;HPM_P2
2023/10/21 00:02:12;;;;;;;;;10.00;9.00;;;;;12.56;100.00;98244.88;5009568;28;9872;-68
2023/10/21 00:04:39;;;;;;;;;15.25;10.00;;;;;12.58;100.00;98241.91;5024238;28;9769;-67
2023/10/21 00:07:05;;;;;;;;;9.50;8.00;;;;;12.60;100.00;98245.16;5009065;28;10652;-68
2023/10/21 00:09:32;;;;;;;;;8.50;8.50;;;;;12.60;100.00;98251.34;5009287;28;9844;-68
2023/10/21 00:11:58;;;;;;;;;11.50;11.50;;;;;12.54;100.00;98244.34;5008741;28;9839;-68
2023/10/21 00:14:25;;;;;;;;;10.75;9.75;;;;;12.57;100.00;98248.38;5008828;28;9900;-66
2023/10/21 00:16:52;;;;;;;;;8.00;7.50;;;;;12.57;100.00;98245.69;5009009;28;9784;-68
2023/10/21 00:19:18;;;;;;;;;13.25;12.50;;;;;12.56;100.00;98257.56;5009116;28;9772;-67
2023/10/21 00:21:45;;;;;;;;;9.25;8.50;;;;;12.59;100.00;98262.41;5009126;28;9766;-68
2023/10/21 00:24:11;;;;;;;;;9.25;9.00;;;;;12.57;100.00;98265.38;5008803;28;9870;-67
2023/10/21 00:26:48;;;;;;;;;9.25;8.75;;;;;12.57;100.00;98267.28;5008697;28;9756;-68
2023/10/21 00:29:15;;;;;;;;;10.25;9.75;;;;;12.57;100.00;98270.78;5008943;28;9831;-68
2023/10/21 00:31:43;;;;;;;;;8.00;8.00;;;;;12.56;100.00;98265.66;5009249;28;9723;-67
2023/10/21 00:34:10;;;;;;;;;8.00;7.75;;;;;12.57;100.00;98278.06;5024331;28;9859;-68
2023/10/21 00:36:37;;;;;;;;;13.50;9.25;;;;;12.55;100.00;98272.13;5008676;28;9913;-68
2023/10/21 00:39:10;;;;;;;;;8.25;7.75;;;;;12.56;100.00;98279.16;5008889;28;9864;-68
2023/10/21 00:41:42;;;;;;;;;7.50;7.50;;;;;12.58;100.00;98282.38;5023889;28;9690;-67
2023/10/21 00:44:10;;;;;;;;;7.00;6.00;;;;;12.55;100.00;98283.72;5008887;28;9804;-68
2023/10/21 00:46:39;;;;;;;;;6.25;6.25;;;;;12.56;100.00;98285.34;5006992;28;10226;-68
2023/10/21 00:49:05;;;;;;;;;7.75;7.75;;;;;12.54;100.00;98302.88;5008497;28;9601;-68
2023/10/21 00:51:35;;;;;;;;;11.00;6.75;;;;;12.53;100.00;98293.19;5008560;28;10487;-68
2023/10/21 00:54:03;;;;;;;;;9.50;6.50;;;;;12.52;100.00;98299.66;5007069;28;9946;-68
2023/10/21 00:56:29;;;;;;;;;8.25;8.25;;;;;12.51;100.00;98300.72;5023034;28;10581;-68
2023/10/21 00:58:56;;;;;;;;;8.50;7.00;;;;;12.51;100.00;98308.81;5023496;28;10556;-68
2023/10/21 01:01:22;;;;;;;;;8.00;6.00;;;;;12.49;100.00;98308.28;5008412;28;9913;-67
2023/10/21 01:03:49;;;;;;;;;6.00;5.50;;;;;12.52;100.00;98307.75;5008712;28;10558;-68
2023/10/21 01:06:16;;;;;;;;;7.25;4.00;;;;;12.53;100.00;98309.38;5008002;28;10438;-67
2023/10/21 01:08:44;;;;;;;;;7.25;5.25;;;;;12.51;100.00;98320.41;5008316;28;10425;-67
2023/10/21 01:11:11;;;;;;;;;8.25;6.25;;;;;12.52;100.00;98316.66;5008381;28;9768;-67
2023/10/21 01:13:38;;;;;;;;;5.25;5.25;;;;;12.54;100.00;98324.47;5008294;28;9921;-67
2023/10/21 01:16:05;;;;;;;;;8.50;8.50;;;;;12.55;100.00;98324.19;5008231;28;9607;-67
2023/10/21 01:18:33;;;;;;;;;8.25;7.50;;;;;12.54;100.00;98319.09;5008232;28;9784;-68
2023/10/21 01:21:01;;;;;;;;;8.50;6.25;;;;;12.54;100.00;98319.09;5008224;28;9864;-67
2023/10/21 01:23:31;;;;;;;;;9.00;7.50;;;;;12.55;100.00;98323.38;5008196;28;9595;-68
2023/10/21 01:25:58;;;;;;;;;6.25;4.00;;;;;12.55;100.00;98326.91;5022871;28;9771;-66
2023/10/21 01:28:25;;;;;;;;;7.75;7.75;;;;;12.56;100.00;98327.72;5006488;28;9874;-68
2023/10/21 01:30:52;;;;;;;;;7.25;4.50;;;;;12.58;100.00;98330.97;5023182;28;9619;-68
2023/10/21 01:33:18;;;;;;;;;7.00;6.75;;;;;12.59;100.00;98335.25;5023006;28;9880;-68
2023/10/21 01:35:45;;;;;;;;;8.75;8.75;;;;;12.59;100.00;98335.25;5007955;28;9463;-67
2023/10/21 01:38:12;;;;;;;;;5.50;5.50;;;;;12.58;100.00;98341.75;5006316;28;9927;-68
2023/10/21 01:40:38;;;;;;;;;5.25;5.25;;;;;12.59;100.00;98343.38;5022984;28;9886;-67
2023/10/21 01:43:05;;;;;;;;;8.00;7.50;;;;;12.57;100.00;98338.25;5006484;28;9658;-68
2023/10/21 01:45:34;;;;;;;;;7.50;5.50;;;;;12.58;100.00;98347.16;5022898;28;9934;-67
2023/10/21 01:48:02;;;;;;;;;6.25;6.00;;;;;12.58;100.00;98345.25;5005999;28;9700;-68
2023/10/21 01:50:29;;;;;;;;;12.50;5.00;;;;;12.58;100.00;98347.16;5006921;28;9759;-68
2023/10/21 01:52:57;;;;;;;;;5.25;4.25;;;;;12.58;100.00;98355.25;5008161;28;9877;-68
2023/10/21 01:55:24;;;;;;;;;7.50;7.50;;;;;12.59;100.00;98364.94;5008098;28;9697;-68
2023/10/21 01:57:51;;;;;;;;;8.00;7.25;;;;;12.57;100.00;98359.03;5006366;28;9843;-68
2023/10/21 02:00:20;;;;;;;;;7.25;5.00;;;;;12.57;100.00;98359.03;5023068;28;9845;-67
2023/10/21 02:02:50;;;;;;;;;6.50;6.50;;;;;12.57;100.00;98364.44;5007587;28;9781;-68
2023/10/21 02:05:19;;;;;;;;;10.25;9.00;;;;;12.58;100.00;98363.34;5022598;28;9725;-68
2023/10/21 02:07:46;;;;;;;;;6.25;6.25;;;;;12.59;100.00;98362.25;5006178;28;10062;-68
2023/10/21 02:10:13;;;;;;;;;8.00;7.00;;;;;12.59;100.00;98373.84;5006275;28;9679;-67
2023/10/21 02:12:40;;;;;;;;;6.00;4.50;;;;;12.59;100.00;98376.56;5007556;28;9866;-68
2023/10/21 02:15:11;;;;;;;;;7.25;6.75;;;;;12.60;100.00;98380.91;5007523;28;9758;-68
2023/10/21 02:17:39;;;;;;;;;4.25;4.25;;;;;12.62;100.00;98373.31;5022435;28;9591;-68
2023/10/21 02:20:07;;;;;;;;;6.25;5.50;;;;;12.63;100.00;98379.53;5006387;28;9681;-67
2023/10/21 02:22:33;;;;;;;;;8.75;6.25;;;;;12.60;100.00;98380.09;5007687;28;9763;-67
2023/10/21 02:25:00;;;;;;;;;8.75;7.00;;;;;12.60;100.00;98380.09;5006023;28;9609;-68
2023/10/21 02:27:42;;;;;;;;;10.00;9.25;;;;;12.58;100.00;98395.72;5007541;28;9613;-68
2023/10/21 02:30:12;;;;;;;;;6.25;6.00;;;;;12.57;100.00;98394.91;5007646;28;9822;-66
2023/10/21 02:32:43;;;;;;;;;6.75;6.25;;;;;12.57;100.00;98392.22;5007478;28;9674;-68
2023/10/21 02:35:10;;;;;;;;;8.00;6.25;;;;;12.56;100.00;98389.81;5006641;28;9724;-68
2023/10/21 02:37:36;;;;;;;;;5.25;5.25;;;;;12.56;100.00;98397.91;5009507;28;9669;-68
2023/10/21 02:40:03;;;;;;;;;7.50;7.50;;;;;12.55;100.00;98407.03;5011248;28;9745;-68
2023/10/21 02:42:30;;;;;;;;;7.50;7.50;;;;;12.53;100.00;98403.81;5009603;28;9685;-68
2023/10/21 02:44:57;;;;;;;;;7.00;5.75;;;;;12.55;100.00;98407.03;5026018;28;9896;-68
2023/10/21 02:47:24;;;;;;;;;8.50;6.00;;;;;12.53;100.00;98411.91;5009291;28;9611;-68
2023/10/21 02:49:51;;;;;;;;;8.50;7.00;;;;;12.51;100.00;98422.94;5009457;28;9832;-68
2023/10/21 02:52:17;;;;;;;;;8.25;8.25;;;;;12.48;100.00;98418.13;5010723;28;9881;-67
2023/10/21 02:54:44;;;;;;;;;9.25;9.00;;;;;12.49;100.00;98418.91;5009006;28;9937;-68
2023/10/21 02:57:10;;;;;;;;;7.50;7.00;;;;;12.48;100.00;98428.09;5010538;28;9871;-68
2023/10/21 02:59:37;;;;;;;;;8.50;7.75;;;;;12.49;100.00;98427.81;5009557;28;9777;-68
2023/10/21 03:02:03;;;;;;;;;5.25;5.25;;;;;12.49;100.00;98429.72;5010887;28;9710;-68
2023/10/21 03:04:30;;;;;;;;;11.00;9.75;;;;;12.48;100.00;98437.00;5010303;28;9790;-67
2023/10/21 03:06:56;;;;;;;;;7.75;7.75;;;;;12.48;100.00;98430.78;5010458;28;9921;-67
2023/10/21 03:09:23;;;;;;;;;14.00;11.00;;;;;12.44;100.00;98435.09;5025458;28;9758;-67
2023/10/21 03:11:49;;;;;;;;;8.00;8.00;;;;;12.45;100.00;98436.72;5010435;28;9910;-68
2023/10/21 03:14:16;;;;;;;;;11.75;9.00;;;;;12.45;100.00;98440.22;5010387;28;9858;-66
2023/10/21 03:16:43;;;;;;;;;8.50;8.50;;;;;12.45;100.00;98437.53;5025064;28;9800;-68
2023/10/21 03:19:10;;;;;;;;;9.25;8.00;;;;;12.44;100.00;98432.41;5025423;28;9751;-68
2023/10/21 03:21:36;;;;;;;;;11.25;11.25;;;;;12.42;100.00;98439.94;5010308;28;9685;-68
2023/10/21 03:24:03;;;;;;;;;8.00;8.00;;;;;12.40;100.00;98451.00;5010284;28;9790;-68
2023/10/21 03:26:30;;;;;;;;;8.75;8.75;;;;;12.41;100.00;98455.31;5008649;28;9698;-67
2023/10/21 03:28:56;;;;;;;;;9.25;8.75;;;;;12.40;100.00;98463.66;5025112;28;10923;-68
2023/10/21 03:31:23;;;;;;;;;12.00;8.00;;;;;12.41;100.00;98458.03;5009915;28;10529;-68
2023/10/21 03:33:50;;;;;;;;;10.00;10.00;;;;;12.42;100.00;98466.91;5010158;28;9853;-68
2023/10/21 03:36:16;;;;;;;;;8.75;8.00;;;;;12.41;100.00;98460.72;5009935;28;10091;-68
2023/10/21 03:38:43;;;;;;;;;9.50;8.50;;;;;12.42;100.00;98462.31;5009831;28;9915;-67
2023/10/21 03:41:11;;;;;;;;;10.50;8.75;;;;;12.42;100.00;98475.00;5008558;28;9880;-67
2023/10/21 03:43:38;;;;;;;;;10.50;9.75;;;;;12.41;100.00;98470.69;5009737;28;9853;-68
2023/10/21 03:46:07;;;;;;;;;8.00;8.00;;;;;12.40;100.00;98469.06;5009660;28;9843;-68
2023/10/21 03:48:34;;;;;;;;;8.00;8.00;;;;;12.37;100.00;98475.81;5008962;28;9698;-67
2023/10/21 03:51:04;;;;;;;;;8.50;8.50;;;;;12.35;100.00;98481.44;5009572;28;9854;-67
2023/10/21 03:53:32;;;;;;;;;10.50;10.00;;;;;12.30;100.00;98481.44;5024651;28;9828;-68
2023/10/21 03:56:00;;;;;;;;;8.75;7.00;;;;;12.31;100.00;98483.06;5009748;28;9669;-68
2023/10/21 03:58:28;;;;;;;;;8.50;7.50;;;;;12.34;100.00;98490.63;5009733;28;9820;-67
2023/10/21 04:00:56;;;;;;;;;8.50;8.25;;;;;12.36;100.00;98498.47;5009675;28;9827;-68
2023/10/21 04:03:25;;;;;;;;;14.00;10.00;;;;;12.34;100.00;98496.03;5009477;28;9776;-68
2023/10/21 04:05:53;;;;;;;;;7.75;7.75;;;;;12.35;100.00;98503.03;5065880;22;9888;-68
2023/10/21 04:08:20;;;;;;;;;9.50;8.75;;;;;12.38;100.00;98504.41;5050702;28;9750;-68
2023/10/21 04:10:46;;;;;;;;;7.00;7.00;;;;;12.35;100.00;98504.91;5050704;28;9606;-68
2023/10/21 04:13:13;;;;;;;;;6.75;6.50;;;;;12.37;100.00;98509.00;5050491;28;10464;-68
2023/10/21 04:15:40;;;;;;;;;11.00;11.00;;;;;12.31;100.00;98512.72;5050538;28;9664;-68
2023/10/21 04:18:08;;;;;;;;;13.75;11.50;;;;;12.30;100.00;98519.19;5050139;28;9830;-68
2023/10/21 04:20:35;;;;;;;;;9.25;9.25;;;;;12.33;100.00;98517.88;5050497;28;9849;-68
2023/10/21 04:23:02;;;;;;;;;7.50;6.25;;;;;12.36;100.00;98515.47;5049055;28;9708;-68
2023/10/21 04:25:28;;;;;;;;;9.00;7.00;;;;;12.35;100.00;98516.53;5050259;28;9876;-68
2023/10/21 04:27:56;;;;;;;;;8.25;5.25;;;;;12.36;100.00;98522.75;5049973;28;9715;-68
2023/10/21 04:30:23;;;;;;;;;9.50;9.25;;;;;12.38;100.00;98534.06;5050310;28;9854;-68
2023/10/21 04:32:50;;;;;;;;;8.75;7.25;;;;;12.37;100.00;98535.97;5050039;28;9908;-68
2023/10/21 04:35:17;;;;;;;;;7.50;7.25;;;;;12.40;100.00;98539.19;5050201;28;9957;-68
2023/10/21 04:37:44;;;;;;;;;8.50;7.75;;;;;12.40;100.00;98540.03;5049838;28;9675;-68
2023/10/21 04:40:11;;;;;;;;;8.75;8.75;;;;;12.40;100.00;98541.91;5050203;28;9769;-68
2023/10/21 04:42:38;;;;;;;;;9.00;8.00;;;;;12.43;100.00;98544.88;5049902;28;9904;-68
2023/10/21 04:45:09;;;;;;;;;8.50;8.00;;;;;12.44;100.00;98551.13;5049918;28;9848;-69
2023/10/21 04:47:36;;;;;;;;;10.25;7.75;;;;;12.44;100.00;98554.63;5049826;28;9922;-68
2023/10/21 04:50:04;;;;;;;;;10.75;9.75;;;;;12.45;100.00;98555.44;5049893;28;9761;-68
2023/10/21 04:52:30;;;;;;;;;9.25;9.25;;;;;12.47;100.00;98566.75;5049742;28;9703;-68
2023/10/21 04:54:57;;;;;;;;;17.00;13.50;;;;;12.44;100.00;98570.81;5049568;28;9763;-69
2023/10/21 04:57:24;;;;;;;;;11.25;11.25;;;;;12.44;100.00;98573.50;5048087;28;9827;-68
2023/10/21 04:59:50;;;;;;;;;9.25;9.25;;;;;12.47;100.00;98577.56;5048227;28;9966;-68
2023/10/21 05:02:17;;;;;;;;;22.25;18.25;;;;;12.41;100.00;98581.31;5049543;28;9898;-68
2023/10/21 05:04:43;;;;;;;;;14.50;12.50;;;;;12.46;100.00;98584.84;5049534;28;10009;-69
2023/10/21 05:07:10;;;;;;;;;16.25;15.25;;;;;12.47;100.00;98596.44;5049119;28;10008;-68
2023/10/21 05:09:36;;;;;;;;;18.75;15.00;;;;;12.47;100.00;98594.56;5049601;28;9824;-68
2023/10/21 05:12:03;;;;;;;;;11.25;11.25;;;;;12.53;100.00;98609.72;5049486;28;9864;-68
2023/10/21 05:14:31;;;;;;;;;10.50;10.50;;;;;12.54;100.00;98614.03;5064617;28;9755;-68
2023/10/21 05:16:57;;;;;;;;;16.00;13.75;;;;;12.53;100.00;98615.13;5049102;28;9893;-68
2023/10/21 05:19:24;;;;;;;;;14.25;12.75;;;;;12.49;100.00;98619.41;5049467;28;9744;-68
2023/10/21 05:21:50;;;;;;;;;12.75;11.75;;;;;12.48;100.00;98625.88;5049294;28;9670;-69
2023/10/21 05:24:17;;;;;;;;;12.00;11.25;;;;;12.52;100.00;98628.88;5048228;28;10027;-68
2023/10/21 05:26:43;;;;;;;;;13.00;13.00;;;;;12.52;100.00;98634.28;5048825;28;10640;-68
2023/10/21 05:29:11;;;;;;;;;12.25;12.00;;;;;12.52;100.00;98636.97;5049215;28;9999;-68
2023/10/21 05:31:38;;;;;;;;;10.25;8.25;;;;;12.48;100.00;98642.06;5047996;28;9750;-69
2023/10/21 05:34:05;;;;;;;;;14.25;12.00;;;;;12.49;100.00;98650.97;5049118;28;9731;-68
2023/10/21 05:36:31;;;;;;;;;11.50;10.50;;;;;12.53;100.00;98646.69;5049118;28;9970;-68
2023/10/21 05:38:58;;;;;;;;;13.50;11.50;;;;;12.52;100.00;98651.28;5049082;28;9847;-69
2023/10/21 05:41:24;;;;;;;;;15.00;15.00;;;;;12.53;100.00;98657.47;5047600;28;10739;-68
2023/10/21 05:43:51;;;;;;;;;11.00;11.00;;;;;12.54;100.00;98659.09;5047734;28;10596;-68
2023/10/21 05:46:18;;;;;;;;;13.25;12.00;;;;;12.54;100.00;98665.31;5048720;28;10052;-68
2023/10/21 05:48:45;;;;;;;;;9.50;8.50;;;;;12.55;100.00;98661.53;5049398;28;10551;-68
2023/10/21 05:51:11;;;;;;;;;10.75;10.25;;;;;12.55;100.00;98663.41;5049202;28;9754;-68
2023/10/21 05:53:38;;;;;;;;;13.00;10.75;;;;;12.49;100.00;98670.69;5049076;28;9717;-68
2023/10/21 05:56:05;;;;;;;;;8.25;8.25;;;;;12.50;100.00;98677.69;5048418;28;9819;-69
2023/10/21 05:58:31;;;;;;;;;14.50;13.00;;;;;12.53;100.00;98677.19;5049051;28;9849;-69
2023/10/21 06:01:08;;;;;;;;;8.50;8.25;;;;;12.57;100.00;98690.97;5048909;28;9825;-68
2023/10/21 06:03:36;;;;;;;;;11.50;10.75;;;;;12.57;100.00;98696.38;5048930;28;9748;-69
2023/10/21 06:06:03;;;;;;;;;9.00;9.00;;;;;12.56;100.00;98690.16;5048595;28;9765;-68
2023/10/21 06:08:29;;;;;;;;;9.00;9.00;;;;;12.56;100.00;98703.66;5048646;28;9887;-69
2023/10/21 06:10:56;;;;;;;;;7.00;6.75;;;;;12.58;100.00;98704.19;5050280;28;9912;-69
2023/10/21 06:13:24;;;;;;;;;12.50;11.50;;;;;12.56;100.00;98700.16;5051347;28;9695;-70
2023/10/21 06:15:52;;;;;;;;;15.25;12.00;;;;;12.55;100.00;98710.09;5052716;28;9861;-69
2023/10/21 06:18:20;;;;;;;;;14.00;10.75;;;;;12.54;100.00;98707.69;5053015;28;9871;-69
2023/10/21 06:20:50;;;;;;;;;9.25;8.75;;;;;12.57;100.00;98713.38;5053634;28;9738;-70
2023/10/21 06:23:17;;;;;;;;;8.25;7.00;;;;;12.60;100.00;98717.44;5053104;28;9880;-69
2023/10/21 06:25:44;;;;;;;;;12.00;8.25;;;;;12.62;100.00;98728.78;5052913;28;9801;-69
2023/10/21 06:28:13;;;;;;;;;7.00;7.00;;;;;12.61;100.00;98730.69;5052456;28;9824;-69
2023/10/21 06:30:40;;;;;;;;;9.25;8.75;;;;;12.59;100.00;98723.91;5052892;28;9738;-68
2023/10/21 06:33:11;;;;;;;;;8.75;8.25;;;;;12.57;100.00;98729.56;5052451;28;9678;-69
2023/10/21 06:35:38;;;;;;;;;6.50;6.50;;;;;12.58;100.00;98724.97;5052009;28;9684;-69
2023/10/21 06:38:06;;;;;;;;;9.00;8.00;;;;;12.59;100.00;98740.91;5051998;28;9655;-69
2023/10/21 06:40:33;;;;;;;;;12.25;8.50;;;;;12.60;100.00;98741.75;5052102;28;9693;-69
2023/10/21 06:43:12;;;;;;;;;8.00;7.75;;;;;12.61;100.00;98746.06;5052461;28;9854;-69
2023/10/21 06:45:39;;;;;;;;;8.25;8.25;;;;;12.61;100.00;98741.47;5050936;28;9787;-69
2023/10/21 06:48:06;;;;;;;;;8.25;7.75;;;;;12.60;100.00;98752.53;5050381;28;9781;-68
2023/10/21 06:50:35;;;;;;;;;6.75;6.75;;;;;12.60;100.00;98752.53;5052045;28;9646;-69
2023/10/21 06:53:01;;;;;;;;;8.25;8.25;;;;;12.56;100.00;98760.34;5050544;28;9680;-68
2023/10/21 06:55:28;;;;;;;;;8.75;7.00;;;;;12.58;100.00;98766.28;5050392;28;9859;-69
2023/10/21 06:57:54;;;;;;;;;9.00;7.00;;;;;12.58;100.00;98768.97;5051622;28;9662;-69
2023/10/21 07:00:21;;;;;;;;;9.00;9.00;;;;;12.62;100.00;98769.28;5051798;28;9684;-69
2023/10/21 07:02:47;;;;;;;;;7.75;7.50;;;;;12.61;100.00;98771.16;5050434;28;10331;-69
2023/10/21 07:05:15;;;;;;;;;11.00;8.75;;;;;12.66;100.00;98769.56;5050366;28;9824;-69
2023/10/21 07:07:42;;;;;;;;;9.50;8.25;;;;;12.68;100.00;98781.75;5051511;28;9750;-68
2023/10/21 07:10:09;;;;;;;;;9.25;9.25;;;;;12.69;100.00;98783.38;5050286;28;9611;-69
2023/10/21 07:12:38;;;;;;;;;8.75;7.00;;;;;12.71;100.00;98791.19;5050104;28;9902;-68
2023/10/21 07:15:05;;;;;;;;;8.25;8.25;;;;;12.72;100.00;98796.34;5051642;28;9677;-68
2023/10/21 07:17:32;;;;;;;;;7.00;6.50;;;;;12.75;100.00;98795.81;5051278;28;9588;-69
2023/10/21 07:19:59;;;;;;;;;6.25;6.25;;;;;12.75;100.00;98806.63;5051425;28;9771;-68
2023/10/21 07:22:26;;;;;;;;;7.75;7.75;;;;;12.75;100.00;98806.63;5050400;28;9726;-69
2023/10/21 07:24:56;;;;;;;;;7.00;7.00;;;;;12.76;100.00;98807.44;5051259;28;10481;-69
2023/10/21 07:27:24;;;;;;;;;8.00;7.00;;;;;12.78;100.00;98811.50;5051285;28;9542;-69
2023/10/21 07:29:50;;;;;;;;;7.50;7.50;;;;;12.78;100.00;98814.22;5051140;28;9670;-68
2023/10/21 07:32:17;;;;;;;;;6.00;6.00;;;;;12.83;100.00;98816.13;5051247;28;9598;-68
2023/10/21 07:34:44;;;;;;;;;6.75;6.75;;;;;12.82;100.00;98818.03;5050001;28;9561;-69
2023/10/21 07:37:10;;;;;;;;;8.25;8.25;;;;;12.82;100.00;98828.81;5049674;28;10303;-69
2023/10/21 07:39:37;;;;;;;;;6.50;5.75;;;;;12.85;100.00;98831.00;5051251;28;9586;-69
2023/10/21 07:42:04;;;;;;;;;7.25;5.50;;;;;12.85;100.00;98825.59;5051119;28;9590;-68
2023/10/21 07:44:31;;;;;;;;;7.75;7.75;;;;;12.84;100.00;98831.25;5050966;28;9443;-69
2023/10/21 07:46:57;;;;;;;;;7.75;5.50;;;;;12.82;100.00;98822.59;5050855;28;9761;-69
2023/10/21 07:49:24;;;;;;;;;6.00;4.75;;;;;12.90;100.00;98827.53;5066251;28;9599;-69
2023/10/21 07:51:51;;;;;;;;;5.00;5.00;;;;;12.93;100.00;98843.22;5050989;28;9660;-69
2023/10/21 07:54:17;;;;;;;;;8.00;6.75;;;;;12.93;100.00;98845.94;5049441;28;9556;-69
2023/10/21 07:56:45;;;;;;;;;7.00;6.50;;;;;12.92;100.00;98846.97;5050426;28;9554;-69
2023/10/21 07:59:14;;;;;;;;;6.25;6.25;;;;;12.96;100.00;98849.97;5051019;28;9592;-69
2023/10/21 08:01:41;;;;;;;;;7.50;7.50;;;;;12.97;100.00;98857.03;5050884;28;9541;-69
2023/10/21 08:04:08;;;;;;;;;3.25;3.25;;;;;12.96;100.00;98860.78;5050633;28;9597;-68
2023/10/21 08:06:35;;;;;;;;;8.00;4.50;;;;;12.93;100.00;98869.41;5032723;28;9552;-69
2023/10/21 08:09:04;;;;;;;;;4.75;4.75;;;;;12.94;100.00;98868.34;5050512;28;9757;-68
2023/10/21 08:11:31;;;;;;;;;4.25;4.25;;;;;12.95;100.00;98876.16;5050332;28;9589;-69
2023/10/21 08:13:58;;;;;;;;;5.00;5.00;;;;;12.90;100.00;98869.94;5050334;28;9454;-69
2023/10/21 08:16:25;;;;;;;;;7.25;4.00;;;;;12.93;100.00;98889.13;5050055;28;10258;-69
2023/10/21 08:18:51;;;;;;;;;6.75;5.50;;;;;12.90;100.00;98895.03;5050406;28;9685;-69
2023/10/21 08:21:18;;;;;;;;;7.75;6.25;;;;;12.91;100.00;98899.38;5050335;28;10310;-69
2023/10/21 08:23:45;;;;;;;;;5.50;5.50;;;;;12.94;100.00;98906.97;5050142;28;9542;-68
2023/10/21 08:26:11;;;;;;;;;5.25;4.00;;;;;12.93;100.00;98916.13;5048504;28;9529;-69
2023/10/21 08:28:38;;;;;;;;;4.00;4.00;;;;;12.92;100.00;98916.38;5050258;28;9554;-69
2023/10/21 08:31:04;;;;;;;;;7.00;7.00;;;;;12.93;100.00;98915.31;5048876;28;9454;-69
2023/10/21 08:33:31;;;;;;;;;5.50;5.50;;;;;12.90;100.00;98921.22;5049753;28;9615;-69
2023/10/21 08:35:57;;;;;;;;;4.50;4.50;;;;;12.93;100.00;98923.44;5049972;28;9667;-69
2023/10/21 08:38:24;;;;;;;;;3.00;2.75;;;;;12.96;100.00;98922.91;5049697;28;9373;-68
2023/10/21 08:40:51;;;;;;;;;6.75;5.00;;;;;12.93;100.00;98926.94;5050029;28;9380;-68
2023/10/21 08:43:18;;;;;;;;;6.25;6.25;;;;;12.93;100.00;98928.84;5050345;28;9646;-68
2023/10/21 08:45:45;;;;;;;;;5.75;5.75;;;;;12.94;100.00;98923.16;5049817;28;9562;-69
2023/10/21 08:48:13;;;;;;;;;9.50;9.00;;;;;12.99;100.00;98936.69;5049435;28;9640;-69
2023/10/21 08:50:40;;;;;;;;;8.50;8.00;;;;;13.03;100.00;98942.41;5049802;28;9603;-68
2023/10/21 08:53:13;;;;;;;;;9.00;9.00;;;;;13.03;100.00;98945.09;5048031;28;9634;-69
2023/10/21 08:55:40;;;;;;;;;8.00;8.00;;;;;12.94;100.00;98939.38;5049743;28;9579;-68
2023/10/21 08:58:07;;;;;;;;;8.25;8.25;;;;;13.00;100.00;98953.72;5049403;28;9459;-69
2023/10/21 09:00:34;;;;;;;;;6.00;4.00;;;;;13.01;100.00;98960.78;5049524;28;9524;-69
2023/10/21 09:03:02;;;;;;;;;8.00;7.00;;;;;12.96;100.00;98963.41;5049378;28;9401;-69
2023/10/21 09:05:29;;;;;;;;;6.75;4.25;;;;;12.86;100.00;98969.53;5049203;28;9787;-69
2023/10/21 09:07:55;;;;;;;;;4.25;4.25;;;;;12.87;100.00;98992.75;5049228;28;9517;-70
2023/10/21 09:10:22;;;;;;;;;2.75;2.75;;;;;12.76;100.00;98997.25;5049279;28;9512;-70
2023/10/21 09:12:49;;;;;;;;;7.50;6.25;;;;;12.81;100.00;98988.38;5049485;28;9427;-70
2023/10/21 09:15:15;;;;;;;;;1.00;1.00;;;;;12.78;100.00;98997.81;5048393;28;9727;-70
2023/10/21 09:17:45;;;;;;;;;1.00;1.00;;;;;12.83;100.00;99008.66;5049253;28;9299;-70
2023/10/21 09:20:14;;;;;;;;;1.00;1.00;;;;;12.86;100.00;99012.75;5049438;28;9149;-69
2023/10/21 09:22:43;;;;;;;;;1.75;1.75;;;;;12.86;100.00;99012.75;5031569;28;9351;-69
2023/10/21 09:25:20;;;;;;;;;1.00;1.00;;;;;12.80;100.00;99021.84;5047851;28;10076;-70
2023/10/21 09:27:54;;;;;;;;;2.00;2.00;;;;;12.71;100.00;99016.06;5048978;28;9471;-70
2023/10/21 09:30:23;;;;;;;;;1.00;1.00;;;;;12.79;100.00;99014.81;5047867;28;9435;-70
2023/10/21 09:32:50;;;;;;;;;1.00;1.00;;;;;12.76;100.00;99029.66;5047673;28;9388;-70
2023/10/21 09:35:16;;;;;;;;;0.33;0.33;;;;;12.81;100.00;99021.59;5049161;28;9363;-69
2023/10/21 09:37:43;;;;;;;;;1.33;1.00;;;;;12.78;100.00;99027.50;5049088;28;9304;-70
2023/10/21 09:40:10;;;;;;;;;0.67;0.67;;;;;12.86;100.00;99028.94;5047725;28;9397;-70
2023/10/21 09:42:47;;;;;;;;;1.00;1.00;;;;;12.85;100.00;99038.13;5031318;28;9321;-70
2023/10/21 09:45:16;;;;;;;;;1.00;1.00;;;;;12.82;100.00;99044.81;5049444;28;9237;-70
2023/10/21 09:47:43;;;;;;;;;0.75;0.75;;;;;12.93;100.00;99047.66;5068277;28;9215;-70
2023/10/21 09:50:12;;;;;;;;;1.75;1.75;;;;;12.87;100.00;99047.56;5053168;28;9394;-70
2023/10/21 09:53:10;;;;;;;;;2.00;2.00;;;;;12.89;100.00;99047.34;5053164;28;9366;-70
2023/10/21 09:55:39;;;;;;;;;1.00;1.00;;;;;12.79;100.00;99047.22;5052631;28;9406;-70
2023/10/21 09:58:07;;;;;;;;;1.00;1.00;;;;;12.82;100.00;99061.03;5052819;28;9274;-71
2023/10/21 10:00:35;;;;;;;;;2.00;2.00;;;;;12.87;100.00;99060.28;5052951;28;9283;-70
2023/10/21 10:03:05;;;;;;;;;3.67;1.33;;;;;12.85;100.00;99065.13;5052988;28;9215;-70
2023/10/21 10:05:32;;;;;;;;;2.00;1.00;;;;;12.94;99.56;99066.28;5075346;22;9368;-66
2023/10/21 10:07:59;;;;;;;;;1.00;1.00;;;;;13.02;99.43;99065.03;5049537;28;9307;-67
2023/10/21 10:10:27;;;;;;;;;1.33;1.33;;;;;13.08;98.94;99064.00;5051225;28;9170;-66
2023/10/21 10:13:02;;;;;;;;;4.00;3.33;;;;;13.12;98.79;99070.53;5051209;28;9232;-66
2023/10/21 10:15:34;;;;;;;;;2.00;2.00;;;;;13.07;98.72;99075.88;5049727;28;9286;-66
2023/10/21 10:18:18;;;;;;;;;1.00;1.00;;;;;13.09;98.37;99088.09;5050830;28;9178;-67
2023/10/21 10:20:50;;;;;;;;;1.00;1.00;;;;;13.17;98.42;99080.59;5051004;28;9106;-66
2023/10/21 10:23:24;;;;;;;;;3.00;1.00;;;;;13.19;97.53;99089.25;5051285;28;9159;-66
2023/10/21 10:25:54;;;;;;;;;1.00;1.00;;;;;13.21;97.09;99092.53;5051158;28;9313;-66
2023/10/21 10:28:25;;;;;;;;;1.00;1.00;;;;;13.21;97.11;99090.63;5050786;28;10018;-66
2023/10/21 10:30:53;;;;;;;;;1.00;0.67;;;;;13.28;96.81;99103.97;5050601;28;9118;-67
2023/10/21 10:33:24;;;;;;;;;1.00;1.00;;;;;13.25;96.57;99099.91;5050608;28;9217;-67
2023/10/21 10:35:53;;;;;;;;;1.67;1.67;;;;;13.36;95.98;99107.03;5050960;28;9133;-66
2023/10/21 10:38:27;;;;;;;;;1.67;1.00;;;;;13.36;95.93;99107.03;5050681;28;9166;-67
2023/10/21 10:41:20;;;;;;;;;1.00;1.00;;;;;13.35;95.24;99108.09;5050799;28;9179;-67
2023/10/21 10:43:54;;;;;;;;;0.00;0.00;;;;;13.40;95.36;99101.09;5050790;28;9158;-67
2023/10/21 10:46:22;;;;;;;;;1.00;1.00;;;;;13.44;95.18;99124.66;5050375;28;9857;-66
2023/10/21 10:48:52;;;;;;;;;2.00;2.00;;;;;13.42;94.70;99112.50;5050682;28;9141;-67
2023/10/21 10:51:21;;;;;;;;;2.00;0.67;;;;;13.47;94.31;99107.13;5050552;28;9098;-66
2023/10/21 10:53:56;;;;;;;;;1.00;1.00;;;;;13.41;93.71;99130.59;5050376;28;9068;-66
2023/10/21 10:56:25;;;;;;;;;1.00;1.00;;;;;13.40;93.14;99126.25;5050168;28;9253;-66
2023/10/21 10:58:52;;;;;;;;;2.33;2.33;;;;;13.43;93.37;99127.63;5050297;28;9155;-67
2023/10/21 11:01:26;;;;;;;;;2.00;2.00;;;;;13.47;93.02;99132.28;5050344;28;9303;-66
2023/10/21 11:03:55;;;;;;;;;1.67;1.67;;;;;13.33;92.39;99129.16;5050118;28;9218;-67
2023/10/21 11:06:23;;;;;;;;;1.00;1.00;;;;;13.31;91.49;99125.88;5049396;28;9178;-67
2023/10/21 11:08:52;;;;;;;;;2.00;2.00;;;;;13.38;91.33;99133.81;5050086;28;9166;-66
2023/10/21 11:11:18;;;;;;;;;1.00;1.00;;;;;13.40;90.97;99131.66;5050047;28;9261;-65
2023/10/21 11:13:46;;;;;;;;;3.00;1.00;;;;;13.30;90.36;99140.47;5050054;28;9169;-66
2023/10/21 11:16:12;;;;;;;;;1.67;1.67;;;;;13.32;90.14;99140.22;5064950;28;9244;-66
2023/10/21 11:18:39;;;;;;;;;1.00;1.00;;;;;13.42;90.08;99148.44;5049803;28;9320;-66
2023/10/21 11:21:07;;;;;;;;;3.00;3.00;;;;;13.42;90.11;99148.44;5049870;28;9301;-66
2023/10/21 11:23:35;;;;;;;;;1.00;1.00;;;;;13.48;89.92;99149.31;5050194;28;9289;-66
2023/10/21 11:26:02;;;;;;;;;2.67;2.67;;;;;13.47;89.47;99145.78;5049824;28;9376;-67
2023/10/21 11:28:29;;;;;;;;;3.33;2.00;;;;;13.51;88.76;99154.22;5065109;28;9259;-66
2023/10/21 11:30:58;;;;;;;;;1.00;1.00;;;;;13.39;87.69;99164.34;5049629;28;9837;-66
2023/10/21 11:33:26;;;;;;;;;1.33;1.33;;;;;13.47;87.49;99162.00;5049537;28;9066;-66
2023/10/21 11:35:53;;;;;;;;;1.00;1.00;;;;;13.49;87.46;99162.59;5048152;28;9137;-66